Time;durP1;ratioP1;P1;durP2;ratioP2;P2;SDS_P1;SDS_P2;PMS_P1;PMS_P2;Temp;Humidity;BMP_temperature;BMP_pressure;BME280_temperature;BME280_humidity;BME280_pressure;Samples;Min_cycle;Max_cycle;Signal;HPM_P1;HPM_P2
2023/12/26 00:00:11;;;;;;;1.50;1.05;;;9.50;99.90;;;;;;5020786;27;88338;-29
2023/12/26 00:02:36;;;;;;;0.88;0.88;;;9.50;99.90;;;;;;5020479;27;90242;-33
2023/12/26 00:05:05;;;;;;;1.30;1.20;;;9.50;99.90;;;;;;5019352;28;90721;-32
2023/12/26 00:07:31;;;;;;;1.02;0.80;;;9.50;99.90;;;;;;5020035;27;89934;-33
2023/12/26 00:09:56;;;;;;;1.02;1.02;;;9.50;99.90;;;;;;5019589;27;88995;-30
2023/12/26 00:12:24;;;;;;;0.90;0.90;;;9.50;99.90;;;;;;5020921;28;89868;-32
2023/12/26 00:14:50;;;;;;;1.10;0.90;;;9.50;99.90;;;;;;5019272;27;89832;-32
2023/12/26 00:17:16;;;;;;;1.95;0.70;;;9.50;99.90;;;;;;5019237;27;89778;-29
2023/12/26 00:19:42;;;;;;;0.82;0.82;;;9.50;99.90;;;;;;5006632;28;89777;-34
2023/12/26 00:22:07;;;;;;;1.30;1.20;;;9.50;99.90;;;;;;5019561;28;90164;-32
2023/12/26 00:24:33;;;;;;;0.82;0.82;;;9.50;99.90;;;;;;5019836;28;91631;-33
2023/12/26 00:26:58;;;;;;;0.73;0.73;;;9.50;99.90;;;;;;5020033;28;89668;-30
2023/12/26 00:29:24;;;;;;;2.05;1.70;;;9.50;99.90;;;;;;5018885;28;90361;-31
2023/12/26 00:31:50;;;;;;;0.93;0.85;;;9.50;99.90;;;;;;5019973;27;89101;-32
2023/12/26 00:34:16;;;;;;;1.23;0.73;;;9.50;99.90;;;;;;5003066;28;90695;-31
2023/12/26 00:36:41;;;;;;;1.00;1.00;;;9.50;99.90;;;;;;5009853;28;89717;-30
2023/12/26 00:39:07;;;;;;;25.27;1.55;;;9.50;99.90;;;;;;5020164;28;88706;-28
2023/12/26 00:41:33;;;;;;;1.55;0.80;;;9.50;99.90;;;;;;5019858;27;90652;-30
2023/12/26 00:43:58;;;;;;;0.60;0.60;;;9.60;99.90;;;;;;5005989;28;89354;-32
2023/12/26 00:46:24;;;;;;;1.05;0.70;;;9.60;99.90;;;;;;5020330;28;90147;-31
2023/12/26 00:48:50;;;;;;;1.17;0.90;;;9.60;99.90;;;;;;5020150;28;89954;-32
2023/12/26 00:51:16;;;;;;;0.77;0.77;;;9.60;99.90;;;;;;5019688;27;91376;-31
2023/12/26 00:53:41;;;;;;;1.10;1.10;;;9.60;99.90;;;;;;5018623;28;90268;-34
2023/12/26 00:56:07;;;;;;;1.13;1.02;;;9.60;99.90;;;;;;5019548;28;90597;-31
2023/12/26 00:58:33;;;;;;;1.20;0.80;;;9.70;99.90;;;;;;5005812;27;89211;-33
2023/12/26 01:00:59;;;;;;;0.68;0.68;;;9.60;99.90;;;;;;5020218;28;90986;-29
2023/12/26 01:03:25;;;;;;;1.17;1.08;;;9.70;99.90;;;;;;5002342;27;89992;-33
2023/12/26 01:05:51;;;;;;;0.82;0.77;;;9.70;99.90;;;;;;5000242;28;89460;-31
2023/12/26 01:08:18;;;;;;;0.63;0.60;;;9.70;99.90;;;;;;5000021;28;89042;-29
2023/12/26 01:10:43;;;;;;;0.82;0.82;;;9.70;99.90;;;;;;4999701;28;90002;-32
2023/12/26 01:13:09;;;;;;;0.52;0.52;;;9.70;99.90;;;;;;4999511;28;89982;-31
2023/12/26 01:15:36;;;;;;;0.88;0.60;;;9.70;99.90;;;;;;5009084;28;90124;-30
2023/12/26 01:18:02;;;;;;;0.55;0.45;;;9.70;99.90;;;;;;5005120;27;90075;-32
2023/12/26 01:20:27;;;;;;;0.65;0.65;;;9.70;99.90;;;;;;5009819;28;90714;-33
2023/12/26 01:22:53;;;;;;;0.60;0.60;;;9.70;99.90;;;;;;4998854;28;90152;-33
2023/12/26 01:25:19;;;;;;;0.55;0.43;;;9.70;99.90;;;;;;4999852;28;89360;-31
2023/12/26 01:27:44;;;;;;;1.08;0.98;;;9.70;99.90;;;;;;5002249;28;89023;-31
2023/12/26 01:30:10;;;;;;;0.65;0.57;;;9.70;99.90;;;;;;5009529;27;89280;-31
2023/12/26 01:32:36;;;;;;;0.57;0.57;;;9.70;99.90;;;;;;5000265;28;89614;-32
2023/12/26 01:35:02;;;;;;;0.60;0.60;;;9.70;99.90;;;;;;4999217;28;89825;-30
2023/12/26 01:37:27;;;;;;;0.85;0.80;;;9.70;99.90;;;;;;5000717;28;89648;-29
2023/12/26 01:39:53;;;;;;;0.30;0.30;;;9.70;99.90;;;;;;5000214;28;90013;-32
2023/12/26 01:42:19;;;;;;;0.40;0.40;;;9.70;99.90;;;;;;4999770;28;89574;-34
2023/12/26 01:44:44;;;;;;;0.50;0.50;;;9.70;99.90;;;;;;5000591;28;89250;-31
2023/12/26 01:47:11;;;;;;;0.95;0.57;;;9.70;99.90;;;;;;4998860;28;89875;-30
2023/12/26 01:49:37;;;;;;;6.13;1.58;;;9.70;99.90;;;;;;5000537;28;89529;-29
2023/12/26 01:52:07;;;;;;;1.55;0.88;;;9.70;99.90;;;;;;5000729;28;91828;-31
2023/12/26 01:54:34;;;;;;;1.08;0.60;;;9.70;99.90;;;;;;4994346;28;90013;-31
2023/12/26 01:57:02;;;;;;;0.75;0.68;;;9.70;99.90;;;;;;5000483;28;88401;-30
2023/12/26 01:59:28;;;;;;;1.90;1.50;;;9.60;99.90;;;;;;4999662;28;90949;-31
2023/12/26 02:01:54;;;;;;;1.00;0.80;;;9.70;99.90;;;;;;5000385;28;89485;-34
2023/12/26 02:04:20;;;;;;;1.77;0.65;;;9.60;99.90;;;;;;4999772;28;89058;-32
2023/12/26 02:06:48;;;;;;;1.75;0.93;;;9.60;99.90;;;;;;5000967;28;90049;-32
2023/12/26 02:09:14;;;;;;;1.50;1.20;;;9.60;99.90;;;;;;5000316;28;90154;-31
2023/12/26 02:11:40;;;;;;;3.20;0.90;;;9.60;99.90;;;;;;5000947;28;90218;-31
2023/12/26 02:14:06;;;;;;;0.52;0.52;;;9.50;99.90;;;;;;4997500;28;89313;-33
2023/12/26 02:16:36;;;;;;;6.30;1.80;;;9.60;99.90;;;;;;5001425;28;89261;-30
2023/12/26 02:19:03;;;;;;;3.85;0.90;;;9.60;99.90;;;;;;5000567;28;89142;-31
2023/12/26 02:21:28;;;;;;;3.30;1.08;;;9.50;99.90;;;;;;5001193;28;90102;-32
2023/12/26 02:23:55;;;;;;;3.70;1.33;;;9.50;99.90;;;;;;4999988;28;89992;-33
2023/12/26 02:26:27;;;;;;;4.40;1.15;;;9.50;99.90;;;;;;5001793;28;89473;-31
2023/12/26 02:28:54;;;;;;;2.60;1.00;;;9.50;99.90;;;;;;5011259;28;90572;-34
2023/12/26 02:31:21;;;;;;;8.48;1.25;;;9.50;99.90;;;;;;4999020;27;92795;-31
2023/12/26 02:33:47;;;;;;;6.93;1.90;;;9.50;99.90;;;;;;4997773;28;90012;-31
2023/12/26 02:36:14;;;;;;;8.55;1.63;;;9.40;99.90;;;;;;4998575;28;89149;-33
2023/12/26 02:38:40;;;;;;;6.32;1.77;;;9.40;99.90;;;;;;4998900;28;89330;-32
2023/12/26 02:41:05;;;;;;;3.03;1.33;;;9.40;99.90;;;;;;4998522;28;89517;-31
2023/12/26 02:43:33;;;;;;;4.90;1.17;;;9.40;99.90;;;;;;4999326;28;89756;-33
2023/12/26 02:45:59;;;;;;;1.42;0.85;;;9.40;99.90;;;;;;4999024;28;87585;-31
2023/12/26 02:48:25;;;;;;;10.13;1.55;;;9.40;99.90;;;;;;4998877;28;90277;-30
2023/12/26 02:50:50;;;;;;;1.83;1.15;;;9.30;99.90;;;;;;4999595;28;90972;-30
2023/12/26 02:53:16;;;;;;;2.78;1.33;;;9.40;99.90;;;;;;4998145;28;89807;-32
2023/12/26 02:55:42;;;;;;;1.20;0.60;;;9.40;99.90;;;;;;4997837;28;89878;-32
2023/12/26 02:58:08;;;;;;;2.13;1.38;;;9.40;99.90;;;;;;4998585;28;90144;-29
2023/12/26 03:00:34;;;;;;;4.30;1.27;;;9.40;99.90;;;;;;4997969;28;90220;-31
2023/12/26 03:03:00;;;;;;;1.58;0.70;;;9.40;99.90;;;;;;4998592;28;90298;-30
2023/12/26 03:05:25;;;;;;;3.45;1.65;;;9.40;99.90;;;;;;4998492;28;88749;-32
2023/12/26 03:07:51;;;;;;;0.95;0.70;;;9.40;99.90;;;;;;4998201;28;90677;-30
2023/12/26 03:10:17;;;;;;;3.50;1.92;;;9.40;99.90;;;;;;4999396;28;90216;-30
2023/12/26 03:12:42;;;;;;;2.63;1.60;;;9.30;99.90;;;;;;4998512;28;89535;-31
2023/12/26 03:15:10;;;;;;;2.67;0.90;;;9.30;99.90;;;;;;4998193;28;88709;-29
2023/12/26 03:17:36;;;;;;;6.10;1.47;;;9.30;99.90;;;;;;4998043;28;90275;-30
2023/12/26 03:20:01;;;;;;;5.32;2.75;;;9.30;99.90;;;;;;4997627;28;91148;-33
2023/12/26 03:22:27;;;;;;;3.13;1.00;;;9.30;99.90;;;;;;4998453;28;90916;-31
2023/12/26 03:24:53;;;;;;;2.53;1.08;;;9.30;99.90;;;;;;4998690;28;89679;-32
2023/12/26 03:27:18;;;;;;;1.23;1.13;;;9.20;99.90;;;;;;5001106;28;90346;-31
2023/12/26 03:29:44;;;;;;;3.42;1.67;;;9.20;99.90;;;;;;5013652;28;89790;-29
2023/12/26 03:32:10;;;;;;;6.30;2.10;;;9.20;99.90;;;;;;5001244;28;89902;-32
2023/12/26 03:34:39;;;;;;;2.80;1.88;;;9.20;99.90;;;;;;5007313;28;89113;-29
2023/12/26 03:37:05;;;;;;;2.42;1.73;;;9.20;99.90;;;;;;5009092;28;90972;-31
2023/12/26 03:39:32;;;;;;;4.68;1.67;;;9.20;99.90;;;;;;5019742;28;89532;-32
2023/12/26 03:41:58;;;;;;;3.15;1.33;;;9.20;99.90;;;;;;5020997;28;89074;-32
2023/12/26 03:44:24;;;;;;;3.33;1.58;;;9.20;99.90;;;;;;5020032;28;89399;-31
2023/12/26 03:46:49;;;;;;;2.83;1.20;;;9.10;99.90;;;;;;5020808;27;89936;-31
2023/12/26 03:49:15;;;;;;;4.25;1.23;;;9.00;99.90;;;;;;5020737;28;90066;-29
2023/12/26 03:51:41;;;;;;;3.35;0.98;;;8.90;99.90;;;;;;5020969;28;90337;-31
2023/12/26 03:54:06;;;;;;;4.03;1.50;;;8.70;99.90;;;;;;5019758;27;89007;-31
2023/12/26 03:56:33;;;;;;;2.47;0.77;;;8.50;99.90;;;;;;5020143;28;90114;-29
2023/12/26 03:59:00;;;;;;;3.05;1.42;;;8.40;99.90;;;;;;5013969;27;90058;-33
2023/12/26 04:01:26;;;;;;;2.08;0.60;;;8.20;99.90;;;;;;5014425;28;89548;-32
2023/12/26 04:03:52;;;;;;;2.53;1.10;;;8.10;99.90;;;;;;5000676;27;88427;-33
2023/12/26 04:06:18;;;;;;;1.52;0.75;;;8.00;99.90;;;;;;5013292;28;92152;-30
2023/12/26 04:08:44;;;;;;;2.85;1.80;;;7.90;99.90;;;;;;5013318;28;92403;-31
2023/12/26 04:11:10;;;;;;;14.07;3.47;;;7.90;99.90;;;;;;5000717;28;90836;-29
2023/12/26 04:13:36;;;;;;;4.45;1.42;;;7.90;99.90;;;;;;5001420;28;89280;-31
2023/12/26 04:16:02;;;;;;;6.45;1.60;;;7.80;99.90;;;;;;5000611;28;90168;-32
2023/12/26 04:18:28;;;;;;;3.47;1.15;;;7.80;99.90;;;;;;5005863;28;89817;-33
2023/12/26 04:20:54;;;;;;;2.15;1.48;;;7.70;99.90;;;;;;5020074;27;89655;-33
2023/12/26 04:23:20;;;;;;;1.52;0.90;;;7.70;99.90;;;;;;5019422;27;87904;-33
2023/12/26 04:25:45;;;;;;;6.75;2.80;;;7.60;99.90;;;;;;5020838;28;90839;-30
2023/12/26 04:28:11;;;;;;;4.70;1.23;;;7.60;99.90;;;;;;5020075;28;89784;-30
2023/12/26 04:30:37;;;;;;;3.38;1.23;;;7.60;99.90;;;;;;5006978;28;88617;-29
2023/12/26 04:33:05;;;;;;;7.68;2.63;;;7.60;99.90;;;;;;5013309;28;89590;-31
2023/12/26 04:35:31;;;;;;;5.32;2.03;;;7.60;99.90;;;;;;5000835;28;90964;-32
2023/12/26 04:37:56;;;;;;;4.63;1.67;;;7.60;99.90;;;;;;4998965;28;89697;-33
2023/12/26 04:40:22;;;;;;;2.72;1.27;;;7.60;99.90;;;;;;5000323;28;89283;-31
2023/12/26 04:42:48;;;;;;;3.25;1.58;;;7.60;99.90;;;;;;5012798;28;89136;-31
2023/12/26 04:45:14;;;;;;;8.70;1.60;;;7.60;99.90;;;;;;5000285;28;90561;-29
2023/12/26 04:47:40;;;;;;;10.98;1.92;;;7.60;99.90;;;;;;5012714;27;90438;-32
2023/12/26 04:50:05;;;;;;;9.40;2.53;;;7.60;99.90;;;;;;5000643;28;89470;-32
2023/12/26 04:52:31;;;;;;;5.93;1.70;;;7.50;99.90;;;;;;5000546;28;88978;-31
2023/12/26 04:54:57;;;;;;;6.82;2.58;;;7.50;99.90;;;;;;4999639;28;89884;-31
2023/12/26 04:57:22;;;;;;;3.00;2.15;;;7.50;99.90;;;;;;5006620;28;91014;-30
2023/12/26 04:59:48;;;;;;;4.07;1.98;;;7.50;99.90;;;;;;5005328;28;89842;-29
2023/12/26 05:02:14;;;;;;;4.95;3.13;;;7.50;99.90;;;;;;5000575;28;88388;-33
2023/12/26 05:04:39;;;;;;;6.90;1.55;;;7.50;99.90;;;;;;4999891;28;90355;-28
2023/12/26 05:07:07;;;;;;;14.63;3.03;;;7.50;99.90;;;;;;4999427;28;89732;-32
2023/12/26 05:09:32;;;;;;;5.45;1.98;;;7.40;99.90;;;;;;4999911;28;89665;-32
2023/12/26 05:11:59;;;;;;;7.35;1.67;;;7.40;99.90;;;;;;4999506;28;88774;-33
2023/12/26 05:14:25;;;;;;;6.70;1.92;;;7.40;99.90;;;;;;5012901;28;90306;-32
2023/12/26 05:16:51;;;;;;;6.68;1.77;;;7.30;99.90;;;;;;5013088;27;90333;-29
2023/12/26 05:19:17;;;;;;;8.43;2.97;;;7.40;99.90;;;;;;4998677;28;89510;-30
2023/12/26 05:21:43;;;;;;;6.68;3.63;;;7.30;99.90;;;;;;5006745;28;89875;-30
2023/12/26 05:24:08;;;;;;;13.18;2.88;;;7.30;99.90;;;;;;5018512;28;91040;-30
2023/12/26 05:26:42;;;;;;;11.32;3.35;;;7.30;99.90;;;;;;5004376;28;89768;-33
2023/12/26 05:29:08;;;;;;;3.80;2.38;;;7.30;99.90;;;;;;5011013;28;90330;-31
2023/12/26 05:31:34;;;;;;;13.73;2.65;;;7.30;99.90;;;;;;5006738;28;89477;-29
2023/12/26 05:34:03;;;;;;;4.85;2.28;;;7.20;99.90;;;;;;5005359;28;89459;-32
2023/12/26 05:36:29;;;;;;;12.35;2.20;;;7.20;99.90;;;;;;5018332;27;89658;-29
2023/12/26 05:38:55;;;;;;;6.18;2.45;;;7.30;99.90;;;;;;5017291;27;89434;-31
2023/12/26 05:41:20;;;;;;;6.88;2.40;;;7.30;99.90;;;;;;5019301;28;87634;-30
2023/12/26 05:43:46;;;;;;;4.32;2.38;;;7.30;99.90;;;;;;5016768;28;91411;-32
2023/12/26 05:46:12;;;;;;;6.68;1.90;;;7.40;99.90;;;;;;5016604;27;90666;-32
2023/12/26 05:48:40;;;;;;;4.07;1.42;;;7.40;99.90;;;;;;5016120;27;90450;-31
2023/12/26 05:51:07;;;;;;;;;;;7.50;99.90;;;;;;5018656;27;88930;-32
2023/12/26 05:53:32;;;;;;;2.35;1.45;;;7.60;99.90;;;;;;5012223;27;89497;-31
2023/12/26 05:55:58;;;;;;;4.13;1.73;;;7.60;99.90;;;;;;5017936;28;89835;-32
2023/12/26 05:58:25;;;;;;;4.13;1.77;;;7.60;99.90;;;;;;5016283;28;89346;-32
2023/12/26 06:00:51;;;;;;;3.55;1.25;;;7.70;99.90;;;;;;5018345;27;87981;-30
2023/12/26 06:03:17;;;;;;;4.30;1.92;;;7.70;99.90;;;;;;5016979;28;91246;-31
2023/12/26 06:05:43;;;;;;;6.53;1.95;;;7.70;99.90;;;;;;5017893;28;90070;-32
2023/12/26 06:08:08;;;;;;;3.20;1.65;;;7.70;99.90;;;;;;5016933;28;89343;-33
2023/12/26 06:10:34;;;;;;;6.13;1.55;;;7.80;99.90;;;;;;5017684;28;90498;-33
2023/12/26 06:13:00;;;;;;;2.35;1.65;;;7.80;99.90;;;;;;5016927;27;89871;-30
2023/12/26 06:15:26;;;;;;;2.78;1.55;;;7.80;99.90;;;;;;5019035;28;89509;-31
2023/12/26 06:17:51;;;;;;;7.22;1.80;;;7.90;99.90;;;;;;5017235;28;90662;-28
2023/12/26 06:20:21;;;;;;;6.07;2.58;;;7.90;99.90;;;;;;5018339;28;90887;-30
2023/12/26 06:22:47;;;;;;;9.85;3.05;;;8.00;99.90;;;;;;5017767;27;91073;-28
2023/12/26 06:25:12;;;;;;;5.70;2.00;;;8.00;99.90;;;;;;5018046;27;89046;-30
2023/12/26 06:27:38;;;;;;;5.15;2.00;;;8.00;99.90;;;;;;5017858;28;90011;-34
2023/12/26 06:30:05;;;;;;;10.98;2.22;;;8.10;99.90;;;;;;5018664;28;89705;-31
2023/12/26 06:32:30;;;;;;;2.10;1.65;;;8.10;99.90;;;;;;5002628;27;92180;-31
2023/12/26 06:34:56;;;;;;;4.35;1.70;;;8.10;99.90;;;;;;4997668;28;89009;-30
2023/12/26 06:37:22;;;;;;;5.30;2.65;;;8.20;99.90;;;;;;5000361;28;90023;-31
2023/12/26 06:39:47;;;;;;;5.05;1.75;;;8.20;99.90;;;;;;5010748;28;89352;-32
2023/12/26 06:42:13;;;;;;;6.68;3.00;;;8.20;99.90;;;;;;5012046;28;90442;-32
2023/12/26 06:44:40;;;;;;;3.63;2.45;;;8.20;99.90;;;;;;5018152;28;90305;-32
2023/12/26 06:47:06;;;;;;;8.07;2.00;;;8.30;99.90;;;;;;5017640;27;90132;-34
2023/12/26 06:49:32;;;;;;;1.85;1.75;;;8.20;99.90;;;;;;5018429;27;89232;-32
2023/12/26 06:51:59;;;;;;;6.13;2.33;;;8.20;99.90;;;;;;5017884;27;90775;-31
2023/12/26 06:54:26;;;;;;;5.88;2.58;;;8.30;99.90;;;;;;5018666;27;90558;-32
2023/12/26 06:56:51;;;;;;;5.97;2.15;;;8.30;99.90;;;;;;5017225;28;90854;-31
2023/12/26 06:59:17;;;;;;;2.60;1.75;;;8.20;99.90;;;;;;5009219;28;88912;-30
2023/12/26 07:01:46;;;;;;;8.70;1.80;;;8.20;99.90;;;;;;5002198;28;90207;-32
2023/12/26 07:04:12;;;;;;;7.43;2.20;;;8.30;99.90;;;;;;5001455;28;89825;-29
2023/12/26 07:06:38;;;;;;;7.10;2.45;;;8.30;99.90;;;;;;5003176;28;89669;-30
2023/12/26 07:09:03;;;;;;;4.38;2.35;;;8.30;99.90;;;;;;5002159;28;88377;-30
2023/12/26 07:11:29;;;;;;;5.45;2.80;;;8.30;99.90;;;;;;5003486;28;90573;-31
2023/12/26 07:13:55;;;;;;;6.60;2.08;;;8.30;99.90;;;;;;5002695;28;90176;-30
2023/12/26 07:16:20;;;;;;;7.80;2.42;;;8.30;99.90;;;;;;5004604;28;90080;-30
2023/12/26 07:18:47;;;;;;;12.55;3.03;;;8.30;99.90;;;;;;5002736;28;89054;-31
2023/12/26 07:21:16;;;;;;;2.97;1.63;;;8.40;99.90;;;;;;5003515;28;90120;-30
2023/12/26 07:23:44;;;;;;;5.05;1.90;;;8.40;99.90;;;;;;5002640;28;91556;-32
2023/12/26 07:26:11;;;;;;;8.05;1.85;;;8.40;99.90;;;;;;5003048;28;90813;-32
2023/12/26 07:28:36;;;;;;;6.05;2.38;;;8.30;99.90;;;;;;5012239;28;88391;-31
2023/12/26 07:31:02;;;;;;;5.90;1.52;;;8.40;99.90;;;;;;5021116;28;90624;-32
2023/12/26 07:33:28;;;;;;;4.15;1.80;;;8.40;99.90;;;;;;5020144;28;88766;-29
2023/12/26 07:35:57;;;;;;;7.03;2.05;;;8.30;99.90;;;;;;5020838;28;89525;-32
2023/12/26 07:38:24;;;;;;;6.63;2.60;;;8.30;99.90;;;;;;5021796;27;89779;-29
2023/12/26 07:40:50;;;;;;;6.25;2.80;;;8.40;99.90;;;;;;5020655;27;89676;-29
2023/12/26 07:43:16;;;;;;;4.93;1.58;;;8.40;99.90;;;;;;5028698;22;89004;-29
2023/12/26 07:45:42;;;;;;;9.13;3.28;;;8.30;99.90;;;;;;4981056;28;89244;-32
2023/12/26 07:48:10;;;;;;;7.57;2.67;;;8.30;99.90;;;;;;4979913;28;89974;-30
2023/12/26 07:50:36;;;;;;;6.23;2.73;;;8.30;99.90;;;;;;4980600;28;91081;-32
2023/12/26 07:53:04;;;;;;;16.33;3.17;;;8.30;99.90;;;;;;4981748;28;89956;-29
2023/12/26 07:55:32;;;;;;;8.52;3.22;;;8.30;99.90;;;;;;4980993;28;89961;-31
2023/12/26 07:57:57;;;;;;;7.68;3.88;;;8.40;99.90;;;;;;4980297;28;88836;-32
2023/12/26 08:00:23;;;;;;;11.63;2.45;;;8.30;99.90;;;;;;4974060;28;90098;-31
2023/12/26 08:02:49;;;;;;;6.95;3.05;;;8.30;99.90;;;;;;4981575;28;89408;-32
2023/12/26 08:05:15;;;;;;;3.00;2.00;;;8.30;99.90;;;;;;4980426;28;89996;-31
2023/12/26 08:07:41;;;;;;;2.35;1.88;;;8.30;99.90;;;;;;4981251;28;89985;-28
2023/12/26 08:10:07;;;;;;;5.78;2.08;;;8.30;99.90;;;;;;4979997;28;90237;-31
2023/12/26 08:12:33;;;;;;;6.53;3.83;;;8.30;99.90;;;;;;4979200;28;90463;-30
2023/12/26 08:14:58;;;;;;;6.00;2.38;;;8.30;99.90;;;;;;4980091;28;90954;-33
2023/12/26 08:17:24;;;;;;;11.73;2.20;;;8.30;99.90;;;;;;4980924;28;87626;-32
2023/12/26 08:19:50;;;;;;;6.03;2.47;;;8.40;99.90;;;;;;4980688;28;90673;-31
2023/12/26 08:22:16;;;;;;;14.10;3.55;;;8.40;99.90;;;;;;4979985;28;89894;-31
2023/12/26 08:24:42;;;;;;;4.28;2.38;;;8.40;99.90;;;;;;4977443;28;89990;-33
2023/12/26 08:27:07;;;;;;;5.55;2.28;;;8.40;99.90;;;;;;4969067;28;89010;-31
2023/12/26 08:29:33;;;;;;;10.77;2.67;;;8.40;99.90;;;;;;4977728;28;90437;-28
2023/12/26 08:31:59;;;;;;;7.30;2.42;;;8.30;99.90;;;;;;4977697;28;90255;-31
2023/12/26 08:34:25;;;;;;;9.38;1.95;;;8.30;99.90;;;;;;4977629;28;89852;-31
2023/12/26 08:36:51;;;;;;;5.30;2.38;;;8.30;99.90;;;;;;4977639;28;90583;-31
2023/12/26 08:39:17;;;;;;;4.80;3.00;;;8.30;99.90;;;;;;4977551;28;90632;-32
2023/12/26 08:41:43;;;;;;;7.47;3.28;;;8.40;99.90;;;;;;4978601;28;89071;-31
2023/12/26 08:44:09;;;;;;;10.38;4.40;;;8.40;99.90;;;;;;4977522;28;89394;-33
2023/12/26 08:46:35;;;;;;;9.18;2.60;;;8.40;99.90;;;;;;4978113;28;88697;-30
2023/12/26 08:49:03;;;;;;;3.33;1.52;;;8.40;99.90;;;;;;4976010;28;90099;-30
2023/12/26 08:51:29;;;;;;;10.43;2.55;;;8.40;99.90;;;;;;4978054;28;90062;-29
2023/12/26 08:53:55;;;;;;;10.60;2.83;;;8.40;99.90;;;;;;4977921;28;90000;-30
2023/12/26 08:56:23;;;;;;;7.28;3.42;;;8.40;99.90;;;;;;4977423;28;88296;-30
2023/12/26 08:58:49;;;;;;;12.32;2.75;;;8.40;99.90;;;;;;4977804;28;90201;-30
2023/12/26 09:01:15;;;;;;;15.05;4.05;;;8.40;99.90;;;;;;4977328;28;90622;-30
2023/12/26 09:03:41;;;;;;;7.43;3.08;;;8.40;99.90;;;;;;4976255;28;90270;-30
2023/12/26 09:06:10;;;;;;;9.43;3.40;;;8.50;99.90;;;;;;4978552;28;88727;-32
2023/12/26 09:08:36;;;;;;;15.02;2.22;;;8.50;99.90;;;;;;4977788;28;89774;-30
2023/12/26 09:11:03;;;;;;;7.15;2.35;;;8.50;99.90;;;;;;4976601;28;91309;-33
2023/12/26 09:13:29;;;;;;;6.78;2.55;;;8.50;99.90;;;;;;4977405;28;89544;-31
2023/12/26 09:15:55;;;;;;;2.75;2.20;;;8.50;99.90;;;;;;4978003;28;88873;-33
2023/12/26 09:18:21;;;;;;;8.27;3.85;;;8.50;99.90;;;;;;4976960;28;89447;-30
2023/12/26 09:20:46;;;;;;;11.25;3.00;;;8.50;99.90;;;;;;4977820;28;89443;-33
2023/12/26 09:23:13;;;;;;;5.03;2.05;;;8.50;99.90;;;;;;4977610;28;89613;-32
2023/12/26 09:25:38;;;;;;;6.82;2.47;;;8.50;99.90;;;;;;4976606;28;89669;-29
2023/12/26 09:28:07;;;;;;;10.25;2.85;;;8.50;99.90;;;;;;4977155;28;90503;-31
2023/12/26 09:30:32;;;;;;;8.85;3.92;;;8.50;99.90;;;;;;4978343;28;89476;-30
2023/12/26 09:32:58;;;;;;;10.10;2.67;;;8.50;99.90;;;;;;4976107;28;89693;-29
2023/12/26 09:35:23;;;;;;;13.50;2.38;;;8.60;99.90;;;;;;4977781;28;90064;-31
2023/12/26 09:37:49;;;;;;;10.18;3.63;;;8.60;99.90;;;;;;4976688;28;90250;-31
2023/12/26 09:40:15;;;;;;;10.13;3.67;;;8.60;99.90;;;;;;4976029;28;90105;-31
2023/12/26 09:42:41;;;;;;;9.52;4.50;;;8.60;99.90;;;;;;4975932;28;90071;-30
2023/12/26 09:45:10;;;;;;;12.15;3.95;;;8.60;99.90;;;;;;4970792;28;88584;-30
2023/12/26 09:47:44;;;;;;;15.82;2.85;;;8.60;99.90;;;;;;4975353;28;89681;-31
2023/12/26 09:50:10;;;;;;;11.73;3.25;;;8.70;99.90;;;;;;4975927;28;91785;-29
2023/12/26 09:52:37;;;;;;;5.68;2.42;;;8.70;99.90;;;;;;4976427;28;91057;-32
2023/12/26 09:55:03;;;;;;;5.07;2.40;;;8.70;99.90;;;;;;4975053;28;89639;-32
2023/12/26 09:57:30;;;;;;;7.70;3.22;;;8.70;99.90;;;;;;4977170;28;89903;-30
2023/12/26 09:59:56;;;;;;;6.43;3.05;;;8.80;99.90;;;;;;4975822;28;89808;-30
2023/12/26 10:02:22;;;;;;;4.82;2.95;;;8.80;99.90;;;;;;4975480;28;90074;-29
2023/12/26 10:04:47;;;;;;;9.18;2.60;;;8.80;99.90;;;;;;4975190;28;88667;-31
2023/12/26 10:07:18;;;;;;;4.65;2.17;;;8.80;99.90;;;;;;4975824;28;90167;-32
2023/12/26 10:09:44;;;;;;;4.25;2.28;;;8.90;99.90;;;;;;4975454;28;89363;-33
2023/12/26 10:12:10;;;;;;;8.77;3.08;;;9.00;99.90;;;;;;4977283;28;89980;-32
2023/12/26 10:14:37;;;;;;;7.30;2.95;;;9.10;99.90;;;;;;4975685;28;89185;-31
2023/12/26 10:17:03;;;;;;;9.05;2.75;;;9.10;99.90;;;;;;4974432;28;90736;-30
2023/12/26 10:19:29;;;;;;;8.55;3.28;;;9.10;99.90;;;;;;4976792;28;89116;-30
2023/12/26 10:21:55;;;;;;;3.95;2.88;;;9.10;99.90;;;;;;4975496;28;89581;-32
2023/12/26 10:24:21;;;;;;;10.57;4.00;;;9.20;99.90;;;;;;4976257;28;88432;-30
2023/12/26 10:26:47;;;;;;;10.43;3.53;;;9.20;99.90;;;;;;4976002;28;90817;-30
2023/12/26 10:29:14;;;;;;;11.75;2.60;;;9.20;99.90;;;;;;4974708;28;90268;-30
2023/12/26 10:31:41;;;;;;;9.45;3.25;;;9.30;99.90;;;;;;4975848;28;89506;-30
2023/12/26 10:34:19;;;;;;;5.22;3.00;;;9.30;99.90;;;;;;4975762;28;88149;-32
2023/12/26 10:36:47;;;;;;;8.73;3.45;;;9.30;99.90;;;;;;4979412;28;90650;-30
2023/12/26 10:39:13;;;;;;;2.90;2.10;;;9.30;99.90;;;;;;4977601;28;89883;-30
2023/12/26 10:41:44;;;;;;;9.88;2.88;;;9.30;99.90;;;;;;4979670;28;90104;-31
2023/12/26 10:44:11;;;;;;;8.45;2.47;;;9.30;99.90;;;;;;4978913;28;89824;-32
2023/12/26 10:46:39;;;;;;;12.25;2.53;;;9.30;99.90;;;;;;4979556;28;90505;-28
2023/12/26 10:49:05;;;;;;;11.93;3.35;;;9.30;99.90;;;;;;4979611;28;90957;-29
2023/12/26 10:51:32;;;;;;;8.88;3.33;;;9.40;99.90;;;;;;4973686;28;90056;-31
2023/12/26 10:54:07;;;;;;;10.70;4.07;;;9.40;99.90;;;;;;4978716;28;90287;-30
2023/12/26 10:56:33;;;;;;;12.32;3.40;;;9.30;99.90;;;;;;4979289;28;89257;-31
2023/12/26 10:58:59;;;;;;;9.98;2.53;;;9.30;99.90;;;;;;4979145;28;89746;-33
2023/12/26 13:53:04;;;;;;;6.07;2.40;;;9.00;99.90;;;;;;4969345;28;91028;-32
2023/12/26 13:55:30;;;;;;;11.80;2.20;;;9.00;99.90;;;;;;4978077;28;89419;-33
2023/12/26 13:57:55;;;;;;;9.98;3.28;;;8.90;99.90;;;;;;4978752;28;88628;-33
2023/12/26 14:00:21;;;;;;;3.72;1.85;;;8.80;99.90;;;;;;4978259;28;91096;-33
2023/12/26 14:02:47;;;;;;;5.57;1.95;;;8.80;99.90;;;;;;4978185;28;88678;-31
2023/12/26 14:05:12;;;;;;;3.78;2.33;;;8.80;99.90;;;;;;4977202;28;90417;-32
2023/12/26 14:07:38;;;;;;;8.77;3.38;;;8.70;99.90;;;;;;4978595;28;89807;-29
2023/12/26 14:10:03;;;;;;;3.95;2.92;;;8.70;99.90;;;;;;4976795;28;90325;-29
2023/12/26 14:12:29;;;;;;;4.72;1.85;;;8.60;99.90;;;;;;4978856;28;89866;-33
2023/12/26 14:14:55;;;;;;;2.80;2.05;;;8.60;99.90;;;;;;4977125;28;90394;-31
2023/12/26 14:17:21;;;;;;;7.93;3.50;;;8.60;99.90;;;;;;4974265;28;90970;-32
2023/12/26 14:19:46;;;;;;;6.55;1.63;;;8.50;99.90;;;;;;4963312;28;92207;-32
2023/12/26 14:22:12;;;;;;;2.15;1.27;;;8.50;99.90;;;;;;4975823;28;89572;-32
2023/12/26 14:24:38;;;;;;;9.57;2.40;;;8.50;99.90;;;;;;4977868;28;89618;-31
2023/12/26 14:27:05;;;;;;;4.10;1.95;;;8.40;99.90;;;;;;4977721;28;88345;-30
2023/12/26 14:29:31;;;;;;;7.57;1.95;;;8.40;99.90;;;;;;4973737;28;90049;-32
2023/12/26 14:31:57;;;;;;;5.40;1.02;;;8.30;99.90;;;;;;4965921;28;89782;-32
2023/12/26 14:34:22;;;;;;;18.10;1.58;;;8.20;99.90;;;;;;4972674;28;89616;-30
2023/12/26 14:36:48;;;;;;;2.35;0.85;;;8.20;99.90;;;;;;4976547;28;89228;-32
2023/12/26 14:39:14;;;;;;;2.35;1.48;;;8.10;99.90;;;;;;4973786;28;90645;-32
2023/12/26 14:41:39;;;;;;;6.03;1.05;;;8.10;99.90;;;;;;4975121;28;90562;-33
2023/12/26 14:44:42;;;;;;;3.17;0.80;;;8.00;99.90;;;;;;4974894;28;91619;-30
2023/12/26 14:47:45;;;;;;;9.60;1.58;;;8.00;99.90;;;;;;4975076;28;89218;-29
2023/12/26 14:50:49;;;;;;;2.85;1.15;;;7.90;99.90;;;;;;4974949;28;90406;-33
2023/12/26 14:53:52;;;;;;;2.33;1.08;;;7.80;99.90;;;;;;4974983;28;90008;-32
2023/12/26 14:56:55;;;;;;;6.82;1.55;;;7.70;99.90;;;;;;4967325;28;89646;-33
2023/12/26 14:59:58;;;;;;;4.03;1.13;;;7.70;99.90;;;;;;4964547;28;90258;-30
2023/12/26 15:02:34;;;;;;;0.60;0.60;;;7.60;99.90;;;;;;4963482;28;90634;-33
2023/12/26 15:05:00;;;;;;;2.88;0.63;;;7.60;99.90;;;;;;4974258;28;90622;-33
2023/12/26 15:07:26;;;;;;;3.95;1.17;;;7.60;99.90;;;;;;4973429;28;89142;-32
2023/12/26 15:09:51;;;;;;;4.05;1.35;;;7.60;99.90;;;;;;4974033;28;90387;-34
2023/12/26 15:12:17;;;;;;;3.80;0.80;;;7.50;99.90;;;;;;4974810;28;90372;-30
2023/12/26 15:14:43;;;;;;;2.55;0.73;;;7.40;99.90;;;;;;4974265;28;89685;-31
2023/12/26 15:17:09;;;;;;;1.35;1.15;;;7.40;99.90;;;;;;4974824;28;89475;-32
2023/12/26 15:19:36;;;;;;;2.80;1.60;;;7.40;99.90;;;;;;4975014;28;89586;-31
2023/12/26 15:22:02;;;;;;;11.23;1.73;;;7.30;99.90;;;;;;4977005;28;90271;-31
2023/12/26 15:24:27;;;;;;;3.70;2.25;;;7.30;99.90;;;;;;4977350;28;89737;-30
2023/12/26 15:26:53;;;;;;;1.52;0.80;;;7.20;99.90;;;;;;4978217;28;89545;-35
2023/12/26 15:29:19;;;;;;;1.75;0.80;;;7.20;99.90;;;;;;4978479;28;88025;-31
2023/12/26 15:31:46;;;;;;;0.55;0.55;;;7.20;99.90;;;;;;4977424;28;90962;-33
2023/12/26 15:34:12;;;;;;;1.45;1.35;;;7.10;99.90;;;;;;4976863;28;91134;-31
2023/12/26 15:36:37;;;;;;;1.40;0.90;;;7.10;99.90;;;;;;4978583;28;90355;-32
2023/12/26 15:39:03;;;;;;;2.88;1.40;;;7.10;99.90;;;;;;4977404;28;88695;-32
2023/12/26 15:41:29;;;;;;;1.95;1.73;;;7.10;99.90;;;;;;4978522;28;90537;-31
2023/12/26 15:43:54;;;;;;;2.42;1.00;;;7.00;99.90;;;;;;4977104;28;89460;-30